Time;durP1;ratioP1;P1;durP2;ratioP2;P2;SDS_P1;SDS_P2;PMS_P1;PMS_P2;Temp;Humidity;BMP_temperature;BMP_pressure;BME280_temperature;BME280_humidity;BME280_pressure;Samples;Min_cycle;Max_cycle;Signal;HPM_P1;HPM_P2
2021/12/26 00:00:00;;;;;;;0.15;0.15;;;;;;;-9.05;100.00;100882.50;5029829;28;20057;-80
2021/12/26 00:02:34;;;;;;;0.10;0.10;;;;;;;-8.99;100.00;100896.91;5033315;28;20057;-79
2021/12/26 00:05:03;;;;;;;0.10;0.10;;;;;;;-9.06;100.00;100894.00;5040510;28;20049;-79
2021/12/26 00:07:37;;;;;;;0.93;0.20;;;;;;;-9.12;100.00;100887.53;5025528;28;20049;-79
2021/12/26 00:10:13;;;;;;;0.15;0.15;;;;;;;-9.21;100.00;100884.94;5025157;28;20048;-79
2021/12/26 00:12:42;;;;;;;0.10;0.10;;;;;;;-9.21;100.00;100892.84;5031581;28;20057;-79
2021/12/26 00:15:12;;;;;;;0.10;0.10;;;;;;;-9.28;100.00;100889.94;5040949;28;20053;-79
2021/12/26 00:17:45;;;;;;;0.20;0.20;;;;;;;-9.19;100.00;100889.09;5019422;28;20062;-80
2021/12/26 00:20:20;;;;;;;0.25;0.10;;;;;;;-9.11;100.00;100880.47;5024850;28;20513;-80
2021/12/26 00:22:53;;;;;;;0.10;0.10;;;;;;;-9.16;100.00;100882.69;5016763;28;20418;-79
2021/12/26 00:25:27;;;;;;;0.10;0.10;;;;;;;-9.24;100.00;100886.03;5027310;28;20052;-79
2021/12/26 00:28:00;;;;;;;0.10;0.10;;;;;;;-9.35;100.00;100888.88;5025878;28;20056;-80
2021/12/26 00:30:35;;;;;;;0.10;0.10;;;;;;;-9.50;100.00;100880.59;5022854;28;20053;-80
2021/12/26 00:33:08;;;;;;;0.13;0.13;;;;;;;-9.52;100.00;100879.91;5028627;28;20478;-79
2021/12/26 00:35:37;;;;;;;0.13;0.13;;;;;;;-9.63;100.00;100876.47;5032117;28;20042;-80
2021/12/26 00:38:12;;;;;;;0.20;0.20;;;;;;;-9.55;100.00;100882.81;5016948;28;20060;-79
2021/12/26 00:40:41;;;;;;;0.20;0.20;;;;;;;-9.63;100.00;100891.47;5027979;28;20049;-80
2021/12/26 00:43:14;;;;;;;0.15;0.15;;;;;;;-9.63;100.00;100883.56;5019557;28;20064;-80
2021/12/26 00:45:44;;;;;;;0.20;0.20;;;;;;;-9.46;100.00;100888.09;5022506;28;20057;-79
2021/12/26 00:48:17;;;;;;;0.10;0.10;;;;;;;-9.40;100.00;100884.88;5024683;28;20521;-79
2021/12/26 00:50:51;;;;;;;0.10;0.10;;;;;;;-9.61;100.00;100876.31;5013320;28;20049;-80
2021/12/26 00:53:20;;;;;;;0.10;0.10;;;;;;;-9.50;100.00;100878.81;5028404;28;20053;-79
2021/12/26 00:55:53;;;;;;;0.15;0.15;;;;;;;-9.39;100.00;100872.50;5029993;28;20046;-79
2021/12/26 00:58:27;;;;;;;0.10;0.10;;;;;;;-9.51;100.00;100878.94;5022644;28;20045;-79
2021/12/26 01:01:02;;;;;;;0.10;0.10;;;;;;;-9.58;100.00;100876.88;5025059;28;20056;-80
2021/12/26 01:03:36;;;;;;;0.10;0.10;;;;;;;-9.77;100.00;100890.91;5022469;28;20075;-79
2021/12/26 01:06:10;;;;;;;0.10;0.10;;;;;;;-9.78;100.00;100884.00;5029061;28;20044;-79
2021/12/26 01:08:48;;;;;;;0.20;0.20;;;;;;;-9.61;100.00;100881.59;5026401;28;20057;-79
2021/12/26 01:11:34;;;;;;;0.10;0.10;;;;;;;-9.78;100.00;100883.16;5028091;28;20053;-79
2021/12/26 01:14:04;;;;;;;0.10;0.10;;;;;;;-9.77;100.00;100876.94;5026935;28;20076;-79
2021/12/26 01:16:50;;;;;;;0.10;0.10;;;;;;;-9.84;100.00;100883.75;5029572;28;20132;-79
2021/12/26 01:19:31;;;;;;;0.10;0.10;;;;;;;-9.95;100.00;100888.19;5020575;28;20394;-79
2021/12/26 01:22:05;;;;;;;0.10;0.10;;;;;;;-9.81;100.00;100889.53;5016023;28;20049;-79
2021/12/26 01:24:40;;;;;;;0.10;0.10;;;;;;;-9.79;100.00;100889.41;5026602;28;20048;-79
2021/12/26 01:27:09;;;;;;;0.20;0.20;;;;;;;-10.05;100.00;100890.00;5042311;28;20046;-79
2021/12/26 01:29:38;;;;;;;0.10;0.10;;;;;;;-10.09;100.00;100881.53;5025469;28;20366;-79
2021/12/26 01:32:09;;;;;;;0.10;0.10;;;;;;;-10.02;100.00;100888.91;5023833;28;20049;-79
2021/12/26 01:35:01;;;;;;;0.20;0.20;;;;;;;-9.98;100.00;100888.47;5032129;28;20413;-79
2021/12/26 01:37:53;;;;;;;0.10;0.10;;;;;;;-10.03;100.00;100881.97;5027100;28;20051;-79
2021/12/26 01:40:51;;;;;;;0.10;0.10;;;;;;;-10.02;100.00;100883.63;5031520;28;20646;-79
2021/12/26 01:43:39;;;;;;;0.28;0.28;;;;;;;-10.06;100.00;100874.34;5021296;28;20068;-79
2021/12/26 01:46:36;;;;;;;0.10;0.10;;;;;;;-9.96;100.00;100883.06;5021371;28;20076;-79
2021/12/26 01:49:15;;;;;;;0.20;0.20;;;;;;;-9.99;100.00;100868.38;5030074;28;20046;-80
2021/12/26 01:51:49;;;;;;;0.10;0.10;;;;;;;-9.82;100.00;100884.41;5040234;28;20042;-79
2021/12/26 01:54:28;;;;;;;0.10;0.10;;;;;;;-9.75;100.00;100880.25;5020663;28;20057;-79
2021/12/26 01:56:57;;;;;;;0.20;0.20;;;;;;;-9.64;100.00;100889.78;5022272;28;20049;-79
2021/12/26 01:59:31;;;;;;;0.20;0.20;;;;;;;-9.67;100.00;100884.81;5026662;28;20052;-80
2021/12/26 02:02:14;;;;;;;0.10;0.10;;;;;;;-9.69;100.00;100884.97;5020184;28;20394;-80
2021/12/26 02:04:49;;;;;;;0.10;0.10;;;;;;;-9.67;100.00;100880.38;5025671;28;20050;-79
2021/12/26 02:07:25;;;;;;;0.20;0.20;;;;;;;-9.78;100.00;100870.81;5017796;28;20053;-79
2021/12/26 02:09:59;;;;;;;0.10;0.10;;;;;;;-9.64;100.00;100882.75;5019762;28;20060;-79
2021/12/26 02:12:32;;;;;;;0.10;0.10;;;;;;;-9.62;100.00;100874.69;5023709;28;20091;-80
2021/12/26 02:15:06;;;;;;;0.10;0.10;;;;;;;-9.55;100.00;100880.19;5021531;28;20054;-79
2021/12/26 02:17:58;;;;;;;0.10;0.10;;;;;;;-9.54;100.00;100892.41;5025833;28;20785;-79
2021/12/26 02:20:41;;;;;;;0.20;0.20;;;;;;;-9.52;100.00;100883.38;5025297;28;20050;-79
2021/12/26 02:23:19;;;;;;;0.10;0.10;;;;;;;-9.53;100.00;100876.44;5044326;28;20139;-79
2021/12/26 02:28:33;;;;;;;0.10;0.10;;;;;;;-9.50;100.00;100880.59;5020760;28;20048;-78
2021/12/26 02:31:07;;;;;;;0.20;0.20;;;;;;;-9.59;100.00;100885.75;5027304;28;20041;-78
2021/12/26 02:33:40;;;;;;;0.10;0.10;;;;;;;-9.73;100.00;100878.31;5038948;28;20401;-81
2021/12/26 02:36:15;;;;;;;0.10;0.10;;;;;;;-9.74;100.00;100885.38;5028890;28;20111;-80
2021/12/26 02:38:49;;;;;;;0.10;0.10;;;;;;;-9.86;100.00;100877.78;5025451;28;20057;-79
2021/12/26 02:41:22;;;;;;;0.10;0.10;;;;;;;-9.93;100.00;100882.78;5023250;28;20113;-79
2021/12/26 02:43:50;;;;;;;0.10;0.10;;;;;;;-9.79;100.00;100897.31;5026761;28;20496;-80
2021/12/26 02:46:19;;;;;;;0.13;0.13;;;;;;;-9.87;100.00;100887.50;5026463;28;20052;-79
2021/12/26 02:48:47;;;;;;;0.20;0.20;;;;;;;-9.84;100.00;100891.66;5021192;28;20044;-79
2021/12/26 02:51:17;;;;;;;0.20;0.20;;;;;;;-9.86;100.00;100891.75;5029457;28;20053;-80
2021/12/26 02:53:50;;;;;;;0.10;0.10;;;;;;;-9.82;100.00;100893.13;5024717;28;20053;-80
2021/12/26 02:56:19;;;;;;;0.15;0.15;;;;;;;-9.89;100.00;100880.69;5027658;28;20497;-81
2021/12/26 02:58:47;;;;;;;0.10;0.10;;;;;;;-9.92;100.00;100877.34;5024275;28;20041;-79
2021/12/26 03:01:23;;;;;;;0.10;0.10;;;;;;;-9.98;100.00;100891.09;5027563;28;20045;-79
2021/12/26 03:03:56;;;;;;;0.13;0.13;;;;;;;-9.88;100.00;100882.38;5025732;28;20053;-80
2021/12/26 03:06:38;;;;;;;0.10;0.10;;;;;;;-9.83;100.00;100880.13;5016480;28;20049;-80
2021/12/26 03:09:11;;;;;;;0.10;0.10;;;;;;;-10.01;100.00;100872.09;5020188;28;20060;-80
2021/12/26 03:11:46;;;;;;;0.10;0.10;;;;;;;-9.92;100.00;100890.53;5023973;28;20044;-79
2021/12/26 03:14:20;;;;;;;0.10;0.10;;;;;;;-9.99;100.00;100891.25;5022630;28;20057;-79
2021/12/26 03:16:50;;;;;;;0.10;0.10;;;;;;;-9.96;100.00;100894.41;5026761;28;20049;-79
2021/12/26 03:19:18;;;;;;;0.10;0.10;;;;;;;-10.10;100.00;100892.22;5019595;28;20057;-79
2021/12/26 03:21:53;;;;;;;0.10;0.10;;;;;;;-10.21;100.00;100882.66;5021720;28;20430;-80
2021/12/26 03:24:26;;;;;;;0.10;0.10;;;;;;;-10.23;100.00;100883.75;5021706;28;20057;-79
2021/12/26 03:26:59;;;;;;;0.20;0.20;;;;;;;-10.25;100.00;100883.91;5026871;28;20042;-81
2021/12/26 03:29:33;;;;;;;0.20;0.20;;;;;;;-10.24;100.00;100885.56;5020525;28;20053;-79
2021/12/26 03:32:14;;;;;;;0.20;0.20;;;;;;;-10.33;100.00;100891.66;5052765;28;20131;-79
2021/12/26 03:34:48;;;;;;;0.10;0.10;;;;;;;-10.40;100.00;100888.78;5020730;28;20049;-80
2021/12/26 03:37:23;;;;;;;0.17;0.17;;;;;;;-10.49;100.00;100882.56;5031200;28;20065;-80
2021/12/26 03:39:51;;;;;;;0.10;0.10;;;;;;;-10.43;100.00;100874.09;5023859;28;20053;-80
2021/12/26 03:42:24;;;;;;;0.20;0.20;;;;;;;-10.53;100.00;100859.31;5023141;28;20054;-80
2021/12/26 03:44:58;;;;;;;0.10;0.10;;;;;;;-10.41;100.00;100858.19;5023589;28;20063;-80
2021/12/26 03:47:26;;;;;;;0.10;0.10;;;;;;;-10.21;100.00;100866.88;5020847;28;20057;-79
2021/12/26 03:50:01;;;;;;;0.10;0.10;;;;;;;-10.06;100.00;100869.91;5019556;28;20049;-80
2021/12/26 03:52:35;;;;;;;0.10;0.10;;;;;;;-10.00;100.00;100873.78;5028715;28;20167;-81
2021/12/26 03:55:04;;;;;;;0.10;0.10;;;;;;;-9.99;100.00;100854.38;5026118;28;20053;-80
2021/12/26 03:57:33;;;;;;;0.20;0.20;;;;;;;-9.79;100.00;100876.22;5019197;28;20037;-79
2021/12/26 04:00:08;;;;;;;0.10;0.10;;;;;;;-9.76;100.00;100866.25;5024867;28;20056;-79
2021/12/26 04:02:42;;;;;;;0.10;0.10;;;;;;;-9.60;100.00;100859.56;5020419;28;20387;-79
2021/12/26 04:05:11;;;;;;;0.17;0.17;;;;;;;-9.49;100.00;100869.91;5019610;28;20502;-79
2021/12/26 04:07:46;;;;;;;0.10;0.10;;;;;;;-9.48;100.00;100865.50;5025851;28;20037;-80
2021/12/26 04:10:22;;;;;;;0.10;0.10;;;;;;;-9.54;100.00;100851.09;5028006;28;20050;-80
2021/12/26 04:12:56;;;;;;;0.10;0.10;;;;;;;-9.54;100.00;100851.09;5024544;28;20494;-79
2021/12/26 04:15:29;;;;;;;0.10;0.10;;;;;;;-9.63;100.00;100850.13;5026834;28;20429;-81
2021/12/26 04:17:59;;;;;;;0.10;0.10;;;;;;;-9.58;100.00;100857.63;5024339;28;20050;-80
2021/12/26 04:20:34;;;;;;;0.20;0.20;;;;;;;-9.61;100.00;100865.78;5021389;28;20052;-79
2021/12/26 04:23:04;;;;;;;0.10;0.10;;;;;;;-9.63;100.00;100858.03;5022029;28;20049;-79
2021/12/26 04:25:33;;;;;;;0.10;0.10;;;;;;;-9.63;100.00;100857.22;5041621;28;20050;-80
2021/12/26 04:28:06;;;;;;;0.13;0.13;;;;;;;-9.67;100.00;100856.66;5017167;28;20494;-79
2021/12/26 04:30:35;;;;;;;0.10;0.10;;;;;;;-9.71;100.00;100857.91;5024408;28;20046;-79
2021/12/26 04:33:08;;;;;;;0.10;0.10;;;;;;;-9.81;100.00;100863.22;5029112;28;20052;-79
2021/12/26 04:35:42;;;;;;;0.10;0.10;;;;;;;-9.72;100.00;100858.91;5019732;28;20977;-79
2021/12/26 04:38:12;;;;;;;0.20;0.20;;;;;;;-9.77;100.00;100863.78;5039771;28;23592;-80
2021/12/26 04:40:46;;;;;;;0.10;0.10;;;;;;;-9.69;100.00;100860.41;5028321;28;20042;-81
2021/12/26 04:43:43;;;;;;;0.20;0.20;;;;;;;-9.79;100.00;100863.06;5012685;28;20053;-79
2021/12/26 04:46:26;;;;;;;0.10;0.10;;;;;;;-9.72;100.00;100855.44;5028886;28;20049;-80
2021/12/26 04:49:08;;;;;;;0.10;0.10;;;;;;;-9.66;100.00;100850.41;5037451;28;20502;-79
2021/12/26 04:51:41;;;;;;;0.10;0.10;;;;;;;-9.55;100.00;100859.97;5016592;28;20056;-79
2021/12/26 04:54:18;;;;;;;0.10;0.10;;;;;;;-9.58;100.00;100858.44;5033896;28;20409;-80
2021/12/26 04:56:46;;;;;;;0.20;0.20;;;;;;;-9.54;100.00;100861.63;5016397;28;20056;-81
2021/12/26 04:59:19;;;;;;;0.20;0.20;;;;;;;-9.49;100.00;100869.09;5025556;28;20409;-80
2021/12/26 05:01:54;;;;;;;0.10;0.10;;;;;;;-9.48;100.00;100861.03;5030036;28;20056;-80
2021/12/26 05:04:27;;;;;;;0.20;0.10;;;;;;;-9.46;100.00;100852.97;5023313;28;20057;-80
2021/12/26 05:06:55;;;;;;;0.20;0.20;;;;;;;-9.47;100.00;100851.31;5028624;28;20437;-79
2021/12/26 05:09:30;;;;;;;0.20;0.20;;;;;;;-9.50;100.00;100852.47;5021605;28;20404;-80
2021/12/26 05:11:59;;;;;;;0.20;0.20;;;;;;;-9.53;100.00;100841.38;5023798;28;20054;-79
2021/12/26 05:14:27;;;;;;;0.10;0.10;;;;;;;-9.57;100.00;100849.56;5020365;28;20049;-80
2021/12/26 05:17:00;;;;;;;0.15;0.15;;;;;;;-9.56;100.00;100845.13;5016672;28;20049;-81
2021/12/26 05:19:29;;;;;;;0.20;0.20;;;;;;;-9.59;100.00;100843.59;5018990;28;20054;-79
2021/12/26 05:22:04;;;;;;;0.10;0.10;;;;;;;-9.63;100.00;100844.84;5035492;28;20049;-79
2021/12/26 05:24:36;;;;;;;0.13;0.13;;;;;;;-9.72;100.00;100834.34;5023125;28;20049;-79
2021/12/26 05:27:05;;;;;;;0.13;0.13;;;;;;;-9.66;100.00;100847.78;5022734;28;20064;-79
2021/12/26 05:29:38;;;;;;;0.20;0.20;;;;;;;-9.73;100.00;100849.34;5023809;28;20402;-79
2021/12/26 05:32:12;;;;;;;0.20;0.20;;;;;;;-9.71;100.00;100846.56;5016351;28;20058;-80
2021/12/26 05:34:45;;;;;;;0.10;0.10;;;;;;;-9.71;100.00;100849.19;5020139;28;20045;-80
2021/12/26 05:37:14;;;;;;;0.15;0.15;;;;;;;-9.76;100.00;100844.38;5036536;28;20398;-81
2021/12/26 05:39:48;;;;;;;0.20;0.20;;;;;;;-9.68;100.00;100846.25;5019150;28;20050;-79
2021/12/26 05:42:17;;;;;;;0.15;0.15;;;;;;;-9.66;100.00;100837.25;5019685;28;20402;-79
2021/12/26 05:44:50;;;;;;;0.20;0.20;;;;;;;-9.66;100.00;100816.19;5041979;28;20068;-79
2021/12/26 05:47:24;;;;;;;0.10;0.10;;;;;;;-9.54;100.00;100821.25;5019157;28;20053;-80
2021/12/26 05:50:01;;;;;;;0.20;0.20;;;;;;;-9.61;100.00;100807.84;5026314;28;20046;-81
2021/12/26 05:52:30;;;;;;;0.20;0.20;;;;;;;-9.51;100.00;100829.72;5018957;28;20057;-80
2021/12/26 05:55:18;;;;;;;0.22;0.10;;;;;;;-9.57;100.00;100825.84;5024702;28;20524;-80
2021/12/26 05:57:54;;;;;;;0.20;0.20;;;;;;;-9.47;100.00;100832.88;5021736;28;20387;-80
2021/12/26 06:00:22;;;;;;;0.15;0.15;;;;;;;-9.35;100.00;100834.34;5020205;28;20042;-79
2021/12/26 06:02:57;;;;;;;0.10;0.10;;;;;;;-9.32;100.00;100831.44;5019663;28;20046;-79
2021/12/26 06:05:31;;;;;;;0.15;0.15;;;;;;;-9.41;100.00;100827.03;5020164;28;20056;-80
2021/12/26 06:07:59;;;;;;;0.10;0.10;;;;;;;-9.44;100.00;100829.97;5019360;28;20119;-80
2021/12/26 06:10:37;;;;;;;0.20;0.20;;;;;;;-9.50;100.00;100825.25;5018528;28;20054;-80
2021/12/26 06:13:11;;;;;;;0.10;0.10;;;;;;;-9.59;100.00;100813.81;5014493;28;20268;-80
2021/12/26 06:15:44;;;;;;;0.10;0.10;;;;;;;-9.59;100.00;100822.53;5028216;28;20045;-80
2021/12/26 06:18:12;;;;;;;0.10;0.10;;;;;;;-9.52;100.00;100821.97;5019593;28;20065;-79
2021/12/26 06:21:04;;;;;;;0.10;0.10;;;;;;;-9.43;100.00;100826.34;5025993;28;20409;-80
2021/12/26 06:23:50;;;;;;;0.10;0.10;;;;;;;-9.55;100.00;100817.81;5037685;28;20057;-80
2021/12/26 06:26:33;;;;;;;0.10;0.10;;;;;;;-9.49;100.00;100835.66;5037802;28;20049;-79
2021/12/26 06:29:10;;;;;;;0.20;0.20;;;;;;;-9.62;100.00;100830.72;5033250;28;20042;-79
2021/12/26 06:32:18;;;;;;;0.20;0.20;;;;;;;-9.72;100.00;100835.22;5031455;28;20053;-80
2021/12/26 06:35:10;;;;;;;0.20;0.20;;;;;;;-9.82;100.00;100837.03;5040784;28;20536;-79
2021/12/26 06:38:06;;;;;;;0.20;0.20;;;;;;;-9.84;100.00;100838.97;5017369;28;20049;-80
2021/12/26 06:40:58;;;;;;;0.10;0.10;;;;;;;-9.91;100.00;100846.63;5029426;28;20061;-79
2021/12/26 06:43:51;;;;;;;0.10;0.10;;;;;;;-9.97;100.00;100848.00;5028982;28;20057;-79
2021/12/26 06:46:50;;;;;;;0.10;0.10;;;;;;;-10.00;100.00;100839.56;5020833;28;20224;-80
2021/12/26 06:49:37;;;;;;;0.10;0.10;;;;;;;-10.02;100.00;100850.22;5025525;28;20053;-80
2021/12/26 06:52:10;;;;;;;0.20;0.20;;;;;;;-10.07;100.00;100844.56;5031806;28;20045;-80
2021/12/26 06:54:40;;;;;;;0.10;0.10;;;;;;;-10.10;100.00;100845.66;5025174;28;20041;-80
2021/12/26 06:57:08;;;;;;;0.10;0.10;;;;;;;-10.20;100.00;100850.13;5026512;28;20050;-80
2021/12/26 06:59:43;;;;;;;0.20;0.20;;;;;;;-10.26;100.00;100848.88;5026509;28;20486;-80
2021/12/26 07:02:16;;;;;;;0.20;0.20;;;;;;;-10.31;100.00;100842.38;5026481;28;20655;-80
2021/12/26 07:04:57;;;;;;;0.20;0.20;;;;;;;-10.38;100.00;100838.66;5031217;28;20482;-80
2021/12/26 07:07:34;;;;;;;0.10;0.10;;;;;;;-10.42;100.00;100838.13;5030691;28;20057;-80
2021/12/26 07:10:08;;;;;;;0.10;0.10;;;;;;;-10.35;100.00;100844.47;5043238;28;20046;-80
2021/12/26 07:12:37;;;;;;;0.10;0.10;;;;;;;-10.31;100.00;100845.81;5034004;28;20056;-79
2021/12/26 07:15:19;;;;;;;0.15;0.15;;;;;;;-10.32;100.00;100846.78;5022409;28;20037;-80
2021/12/26 07:17:58;;;;;;;0.10;0.10;;;;;;;-10.27;100.00;100849.03;5034221;28;20399;-79
2021/12/26 07:20:35;;;;;;;0.10;0.10;;;;;;;-10.18;100.00;100850.78;5031874;28;20052;-80
2021/12/26 07:23:21;;;;;;;0.20;0.20;;;;;;;-10.16;100.00;100845.38;5028078;28;20516;-79
2021/12/26 07:26:00;;;;;;;0.10;0.10;;;;;;;-10.17;100.00;100847.19;5025134;28;20364;-80
2021/12/26 07:28:33;;;;;;;0.10;0.10;;;;;;;-10.13;100.00;100864.38;5021959;28;20053;-79
2021/12/26 07:31:25;;;;;;;0.10;0.10;;;;;;;-10.12;100.00;100868.69;5027863;28;20049;-80
2021/12/26 07:34:03;;;;;;;0.10;0.10;;;;;;;-10.06;100.00;100867.28;5024029;28;20049;-80
2021/12/26 07:36:37;;;;;;;0.10;0.10;;;;;;;-10.11;100.00;100856.34;5019530;28;20056;-79
2021/12/26 07:39:14;;;;;;;0.20;0.20;;;;;;;-10.04;100.00;100856.59;5027811;28;20525;-78
2021/12/26 07:41:48;;;;;;;0.20;0.20;;;;;;;-10.09;100.00;100855.22;5028407;28;20057;-79
2021/12/26 07:44:59;;;;;;;0.20;0.20;;;;;;;-10.04;100.00;100853.97;5030256;28;20041;-80
2021/12/26 07:47:46;;;;;;;0.10;0.10;;;;;;;-10.04;100.00;100852.16;5028405;28;20049;-80
2021/12/26 07:50:19;;;;;;;0.20;0.20;;;;;;;-10.00;100.00;100856.16;5026294;28;20076;-79
2021/12/26 07:53:10;;;;;;;0.20;0.20;;;;;;;-10.00;100.00;100855.34;5023346;28;20053;-80
2021/12/26 07:56:15;;;;;;;0.20;0.20;;;;;;;-10.03;100.00;100868.81;5009544;28;20433;-79
2021/12/26 07:59:07;;;;;;;0.10;0.10;;;;;;;-10.01;100.00;100874.75;5032825;28;20386;-79
2021/12/26 08:01:59;;;;;;;0.10;0.10;;;;;;;-10.03;100.00;100861.72;5032544;28;20050;-80
2021/12/26 08:04:47;;;;;;;0.20;0.20;;;;;;;-10.07;100.00;100870.88;5024059;28;20054;-80
2021/12/26 08:07:27;;;;;;;0.10;0.10;;;;;;;-10.19;100.00;100859.69;5028819;28;20056;-80
2021/12/26 08:10:02;;;;;;;0.20;0.20;;;;;;;-10.10;100.00;100866.72;5025786;28;20389;-80
2021/12/26 08:12:36;;;;;;;0.20;0.20;;;;;;;-10.13;100.00;100864.38;5028047;28;20524;-80
2021/12/26 08:15:06;;;;;;;0.10;0.10;;;;;;;-10.09;100.00;100864.94;5030772;28;20049;-80
2021/12/26 08:17:40;;;;;;;0.10;0.10;;;;;;;-10.09;100.00;100871.00;5026269;28;20049;-79
2021/12/26 08:20:11;;;;;;;0.20;0.20;;;;;;;-10.10;100.00;100877.25;5027743;28;20037;-80
2021/12/26 08:22:44;;;;;;;0.10;0.10;;;;;;;-10.09;100.00;100891.25;5027473;28;20045;-79
2021/12/26 08:25:18;;;;;;;0.20;0.20;;;;;;;-10.18;100.00;100885.00;5031681;28;20064;-80
2021/12/26 08:27:51;;;;;;;0.10;0.10;;;;;;;-10.16;100.00;100885.72;5017701;28;20428;-80
2021/12/26 08:30:24;;;;;;;0.10;0.10;;;;;;;-10.22;100.00;100893.34;5023889;28;20058;-80
2021/12/26 08:33:04;;;;;;;0.13;0.13;;;;;;;-10.39;100.00;100892.25;5028024;28;20045;-79
2021/12/26 08:35:42;;;;;;;0.10;0.10;;;;;;;-10.44;100.00;100884.75;5020226;28;20046;-81
2021/12/26 08:38:20;;;;;;;0.20;0.20;;;;;;;-10.39;100.00;100892.25;5020248;28;20060;-79
2021/12/26 08:40:51;;;;;;;0.10;0.10;;;;;;;-10.39;100.00;100881.75;5021000;28;20046;-79
2021/12/26 08:43:25;;;;;;;0.10;0.10;;;;;;;-10.27;100.00;100889.31;5026026;28;20050;-79
2021/12/26 08:45:59;;;;;;;0.13;0.13;;;;;;;-10.18;100.00;100897.34;5023766;28;20057;-81
2021/12/26 08:48:32;;;;;;;0.10;0.10;;;;;;;-10.22;100.00;100880.16;5026958;28;20068;-80
2021/12/26 08:51:07;;;;;;;0.17;0.17;;;;;;;-10.10;100.00;100887.78;5044170;28;20049;-80
2021/12/26 08:53:40;;;;;;;0.10;0.10;;;;;;;-10.12;100.00;100878.34;5026265;28;20049;-80
2021/12/26 08:56:13;;;;;;;0.15;0.15;;;;;;;-10.08;100.00;100874.47;5026074;28;20063;-80
2021/12/26 08:58:46;;;;;;;0.10;0.10;;;;;;;-9.97;100.00;100879.59;5022057;28;20046;-79
2021/12/26 09:01:19;;;;;;;0.10;0.10;;;;;;;-9.94;100.00;100879.31;5017515;28;20057;-81
2021/12/26 09:03:48;;;;;;;0.10;0.10;;;;;;;-9.93;100.00;100874.88;5032804;28;20052;-79
2021/12/26 09:06:23;;;;;;;0.10;0.10;;;;;;;-9.87;100.00;100882.22;5018336;28;20409;-81
2021/12/26 09:08:56;;;;;;;0.28;0.20;;;;;;;-9.80;100.00;100882.50;5026738;28;20401;-80
2021/12/26 09:11:29;;;;;;;0.20;0.20;;;;;;;-9.69;100.00;100877.06;5029236;28;20057;-79
2021/12/26 09:14:03;;;;;;;0.10;0.10;;;;;;;-9.66;100.00;100875.94;5031898;28;20050;-79
2021/12/26 09:16:33;;;;;;;0.10;0.10;;;;;;;-9.62;100.00;100878.13;5024786;28;20045;-79
2021/12/26 09:19:07;;;;;;;0.20;0.20;;;;;;;-9.64;100.00;100871.34;5024210;28;20053;-79
2021/12/26 09:21:42;;;;;;;0.20;0.20;;;;;;;-9.63;100.00;100879.09;5026652;28;20406;-80
2021/12/26 09:24:15;;;;;;;0.10;0.10;;;;;;;-9.60;100.00;100876.22;5022644;28;20522;-78
2021/12/26 09:26:43;;;;;;;0.10;0.10;;;;;;;-9.67;100.00;100869.81;5023325;28;20046;-79
2021/12/26 09:29:17;;;;;;;0.25;0.13;;;;;;;-9.59;100.00;100882.28;5029125;28;20684;-79
2021/12/26 09:31:52;;;;;;;0.13;0.13;;;;;;;-9.61;100.00;100881.59;5029536;28;20049;-79
2021/12/26 09:34:25;;;;;;;0.20;0.20;;;;;;;-9.55;100.00;100883.66;5019578;28;20057;-80
2021/12/26 09:37:01;;;;;;;0.20;0.20;;;;;;;-9.49;100.00;100887.53;5008419;28;20064;-79
2021/12/26 09:39:35;;;;;;;0.20;0.20;;;;;;;-9.43;100.00;100884.31;5010101;28;20060;-80
2021/12/26 09:42:10;;;;;;;0.20;0.20;;;;;;;-9.43;100.00;100886.94;5002034;28;20049;-81
2021/12/26 09:44:43;;;;;;;0.20;0.20;;;;;;;-9.43;100.00;100886.94;5006360;28;20050;-81
2021/12/26 09:47:16;;;;;;;0.15;0.15;;;;;;;-9.37;100.00;100883.75;5004832;28;20054;-81
2021/12/26 09:49:44;;;;;;;0.10;0.10;;;;;;;-9.28;100.00;100874.13;5001841;28;20054;-82
2021/12/26 09:52:19;;;;;;;0.20;0.20;;;;;;;-9.21;100.00;100875.22;5007760;28;20049;-81
2021/12/26 09:54:53;;;;;;;0.13;0.13;;;;;;;-9.16;100.00;100882.69;5001674;28;20053;-81
2021/12/26 09:57:21;;;;;;;0.10;0.10;;;;;;;-9.16;100.00;100874.78;5002920;28;20052;-80
2021/12/26 09:59:54;;;;;;;0.15;0.15;;;;;;;-9.08;100.00;100875.72;5003855;28;20125;-80
2021/12/26 10:02:30;;;;;;;0.20;0.20;;;;;;;-9.03;100.00;100877.06;5001438;28;20058;-80
2021/12/26 10:05:03;;;;;;;0.20;0.20;;;;;;;-8.95;100.00;100880.66;4999063;28;20062;-82
2021/12/26 10:07:39;;;;;;;0.20;0.20;;;;;;;-8.96;100.00;100873.72;5006329;28;20046;-81
2021/12/26 10:10:09;;;;;;;0.10;0.10;;;;;;;-8.85;100.00;100879.75;5004002;28;20543;-81
2021/12/26 10:12:40;;;;;;;0.15;0.15;;;;;;;-8.85;100.00;100877.97;5007106;28;20053;-81
2021/12/26 10:15:10;;;;;;;0.20;0.20;;;;;;;-8.76;100.00;100877.06;5002924;28;20061;-81
2021/12/26 10:17:43;;;;;;;0.20;0.20;;;;;;;-8.76;100.00;100853.31;5003265;28;20046;-81
2021/12/26 10:20:11;;;;;;;0.10;0.10;;;;;;;-8.71;100.00;100850.25;5009193;28;20052;-80
2021/12/26 10:22:46;;;;;;;0.10;0.10;;;;;;;-8.57;100.00;100848.91;5004699;28;20046;-80
2021/12/26 10:25:20;;;;;;;0.10;0.10;;;;;;;-8.58;100.00;100848.03;5002294;28;20054;-80
2021/12/26 10:27:49;;;;;;;0.10;0.10;;;;;;;-8.50;100.00;100844.66;5000633;28;20054;-79
2021/12/26 10:30:24;;;;;;;0.17;0.17;;;;;;;-8.51;100.00;100840.38;5002706;28;20593;-79
2021/12/26 10:32:59;;;;;;;0.10;0.10;;;;;;;-8.46;100.00;100848.66;5006283;28;20053;-81
2021/12/26 10:35:32;;;;;;;0.20;0.20;;;;;;;-8.37;100.00;100847.72;5003623;28;20057;-80
2021/12/26 10:38:15;;;;;;;0.10;0.10;;;;;;;-8.39;100.00;100833.84;5004085;28;20062;-81
2021/12/26 10:40:51;;;;;;;0.20;0.20;;;;;;;-8.31;100.00;100843.66;5000268;28;20046;-80
2021/12/26 10:43:42;;;;;;;0.20;0.20;;;;;;;-8.28;100.00;100839.88;5011017;28;20453;-80
2021/12/26 10:46:16;;;;;;;0.10;0.10;;;;;;;-8.28;100.00;100835.41;5002673;28;20052;-80
2021/12/26 10:48:44;;;;;;;0.10;0.10;;;;;;;-8.23;100.00;100837.59;5005247;28;20054;-80
2021/12/26 10:51:32;;;;;;;0.10;0.10;;;;;;;-8.18;100.00;100837.97;5003248;28;20516;-80
2021/12/26 10:54:15;;;;;;;0.10;0.10;;;;;;;-8.13;100.00;100834.88;5002145;28;20057;-80
2021/12/26 10:57:11;;;;;;;0.10;0.10;;;;;;;-8.07;100.00;100824.53;5002997;28;20061;-80
2021/12/26 10:59:45;;;;;;;0.20;0.20;;;;;;;-7.97;100.00;100834.16;5001592;28;20058;-79
2021/12/26 11:02:23;;;;;;;0.17;0.17;;;;;;;-7.94;100.00;100833.84;5006804;28;20052;-79
2021/12/26 11:05:02;;;;;;;0.20;0.20;;;;;;;-7.89;100.00;100829.75;5008869;28;20068;-80
2021/12/26 11:07:50;;;;;;;0.20;0.20;;;;;;;-7.81;100.00;100838.75;5009215;28;20053;-80
2021/12/26 11:10:23;;;;;;;0.10;0.10;;;;;;;-7.77;100.00;100838.25;5003579;28;20132;-79
2021/12/26 11:12:53;;;;;;;0.20;0.20;;;;;;;-7.77;100.00;100832.97;5008665;28;20690;-80
2021/12/26 11:15:29;;;;;;;0.20;0.20;;;;;;;-7.83;100.00;100820.38;5002253;28;20057;-80
2021/12/26 11:18:04;;;;;;;0.13;0.13;;;;;;;-7.80;100.00;100816.59;5002504;28;20053;-80
2021/12/26 11:20:40;;;;;;;0.10;0.10;;;;;;;-7.70;100.00;100828.72;5000466;28;20049;-80
2021/12/26 11:23:15;;;;;;;0.10;0.10;;;;;;;-7.66;100.00;100825.75;5008526;28;20061;-79
2021/12/26 11:25:51;;;;;;;0.10;0.10;;;;;;;-7.65;100.00;100820.34;5001041;28;20575;-79
2021/12/26 11:28:28;;;;;;;0.20;0.20;;;;;;;-7.64;100.00;100819.34;5005377;28;20057;-80
2021/12/26 11:31:04;;;;;;;0.20;0.20;;;;;;;-7.57;100.00;100816.91;5004016;28;20061;-80
2021/12/26 11:33:38;;;;;;;0.10;0.10;;;;;;;-7.52;100.00;100814.63;5009146;28;20050;-79
2021/12/26 11:36:12;;;;;;;0.20;0.20;;;;;;;-7.48;100.00;100805.38;5003603;28;20064;-79
2021/12/26 11:38:55;;;;;;;0.20;0.20;;;;;;;-7.44;100.00;100798.78;5002368;28;20057;-80
2021/12/26 11:41:59;;;;;;;0.13;0.13;;;;;;;-7.40;100.00;100794.00;5012145;28;20057;-80
2021/12/26 11:45:06;;;;;;;0.15;0.15;;;;;;;-7.41;100.00;100801.13;5011136;28;20080;-81
2021/12/26 11:48:39;;;;;;;0.10;0.10;;;;;;;-7.35;100.00;100789.91;4996639;28;21023;-80
2021/12/26 11:52:00;;;;;;;0.10;0.10;;;;;;;-7.27;100.00;100783.81;5008098;28;20050;-79
2021/12/26 11:55:10;;;;;;;0.20;0.20;;;;;;;-7.19;100.00;100777.72;4998500;28;20541;-80
2021/12/26 11:58:11;;;;;;;0.10;0.10;;;;;;;-7.14;100.00;100764.84;5004655;28;20060;-80